createdAt,value
2023-04-12T00:01:41.520Z,11.49
2023-04-12T00:04:44.424Z,11.53
2023-04-12T00:07:47.168Z,11.46
2023-04-12T00:10:49.801Z,11.48
2023-04-12T00:13:53.906Z,11.58
2023-04-12T00:16:56.676Z,11.59
2023-04-12T00:19:59.299Z,11.62
2023-04-12T00:23:02.340Z,11.64
2023-04-12T00:26:05.361Z,11.52
2023-04-12T00:29:09.318Z,11.41
2023-04-12T00:32:11.994Z,11.39
2023-04-12T00:35:14.595Z,11.43
2023-04-12T00:38:17.262Z,11.50
2023-04-12T00:41:19.858Z,11.49
2023-04-12T00:44:23.839Z,11.29
2023-04-12T00:47:26.593Z,11.21
2023-04-12T00:50:29.295Z,11.00
2023-04-12T00:53:32.270Z,10.96
2023-04-12T00:56:36.833Z,10.87
2023-04-12T00:59:41.326Z,10.74
2023-04-12T01:02:47.083Z,10.47
2023-04-12T01:06:00.240Z,10.55
2023-04-12T01:09:15.683Z,10.38
2023-04-12T01:12:29.286Z,10.40
2023-04-12T01:15:38.365Z,10.49
2023-04-12T01:18:45.592Z,10.45
2023-04-12T01:21:59.249Z,10.55
2023-04-12T01:25:12.371Z,10.60
2023-04-12T01:28:22.051Z,10.49
2023-04-12T01:31:26.150Z,10.33
2023-04-12T01:34:31.645Z,10.28
2023-04-12T01:37:35.073Z,10.41
2023-04-12T01:40:40.446Z,10.33
2023-04-12T01:43:45.360Z,10.18
2023-04-12T01:46:49.522Z,10.04
2023-04-12T01:50:00.187Z,9.90
2023-04-12T01:53:09.742Z,9.93
2023-04-12T01:56:13.158Z,9.91
2023-04-12T01:59:18.494Z,9.92
2023-04-12T02:02:21.671Z,10.00
2023-04-12T02:05:25.377Z,9.94
2023-04-12T02:08:28.086Z,9.89
2023-04-12T02:11:31.094Z,9.92
2023-04-12T02:14:35.864Z,9.94
2023-04-12T02:17:39.066Z,9.97
2023-04-12T02:20:41.669Z,9.98
2023-04-12T02:23:44.934Z,10.03
2023-04-12T02:26:49.640Z,10.02
2023-04-12T02:29:53.592Z,10.05
2023-04-12T02:32:56.292Z,10.12
2023-04-12T02:35:59.324Z,10.07
2023-04-12T02:39:02.001Z,10.08
2023-04-12T02:42:04.734Z,9.98
2023-04-12T02:45:09.806Z,9.98
2023-04-12T02:48:12.515Z,9.96
2023-04-12T02:51:15.433Z,9.98
2023-04-12T02:54:18.016Z,10.02
2023-04-12T02:57:21.628Z,10.00
2023-04-12T03:00:25.743Z,9.95
2023-04-12T03:03:31.931Z,9.89
2023-04-12T03:06:35.042Z,9.96
2023-04-12T03:09:38.649Z,9.94
2023-04-12T03:12:41.269Z,9.91
2023-04-12T03:15:45.653Z,9.89
2023-04-12T03:18:48.473Z,9.87
2023-04-12T03:21:51.155Z,9.83
2023-04-12T03:24:54.189Z,9.81
2023-04-12T03:27:56.745Z,9.80
2023-04-12T03:31:01.047Z,9.86
2023-04-12T03:34:04.304Z,9.88
2023-04-12T03:37:08.258Z,9.87
2023-04-12T03:40:11.776Z,9.85
2023-04-12T03:43:14.488Z,9.87
2023-04-12T03:46:18.911Z,9.85
2023-04-12T03:49:22.557Z,9.90
2023-04-12T03:52:25.233Z,9.87
2023-04-12T03:55:27.834Z,9.88
2023-04-12T03:58:30.533Z,9.79
2023-04-12T04:01:35.378Z,9.86
2023-04-12T04:04:38.519Z,9.82
2023-04-12T04:07:41.262Z,9.82
2023-04-12T04:10:43.905Z,9.80
2023-04-12T04:13:47.031Z,9.74
2023-04-12T04:16:51.009Z,9.71
2023-04-12T04:19:53.585Z,9.70
2023-04-12T04:22:56.190Z,9.67
2023-04-12T04:25:58.853Z,9.63
2023-04-12T04:29:03.462Z,9.65
2023-04-12T04:32:07.610Z,9.65
2023-04-12T04:35:10.428Z,9.59
2023-04-12T04:38:13.269Z,9.65
2023-04-12T04:41:17.484Z,9.68
2023-04-12T04:44:20.160Z,9.69
2023-04-12T04:47:24.948Z,9.72
2023-04-12T04:50:28.153Z,9.71
2023-04-12T04:53:30.802Z,9.73
2023-04-12T04:56:33.732Z,9.75
2023-04-12T04:59:36.363Z,9.76
2023-04-12T05:02:42.916Z,9.68
2023-04-12T05:05:45.745Z,9.68
2023-04-12T05:08:48.342Z,9.68
2023-04-12T05:11:50.975Z,9.66
2023-04-12T05:15:04.771Z,9.55
2023-04-12T05:18:15.355Z,9.54
2023-04-12T05:21:17.973Z,9.56
2023-04-12T05:24:20.554Z,9.55
2023-04-12T05:27:23.152Z,9.61
2023-04-12T05:30:26.165Z,9.52
2023-04-12T05:33:32.916Z,9.59
2023-04-12T05:36:36.179Z,9.59
2023-04-12T05:39:38.886Z,9.48
2023-04-12T05:42:41.551Z,9.42
2023-04-12T05:45:44.183Z,9.45
2023-04-12T05:48:48.140Z,9.43
2023-04-12T05:51:50.796Z,9.39
2023-04-12T05:54:53.805Z,9.35
2023-04-12T05:57:56.471Z,9.28
2023-04-12T06:00:59.138Z,9.28
2023-04-12T06:04:06.217Z,9.33
2023-04-12T06:07:11.051Z,9.22
2023-04-12T06:21:21.599Z,9.35
2023-04-12T06:24:26.239Z,9.33
2023-04-12T06:27:32.709Z,9.37
2023-04-12T06:30:37.959Z,9.40
2023-04-12T06:33:42.283Z,9.45
2023-04-12T06:36:48.765Z,9.45
2023-04-12T06:39:52.788Z,9.48
2023-04-12T06:42:56.656Z,9.51
2023-04-12T06:46:01.556Z,9.58
2023-04-12T06:49:05.811Z,9.58
2023-04-12T06:52:09.886Z,9.63
2023-04-12T06:55:12.714Z,9.64
2023-04-12T06:58:15.584Z,9.62
2023-04-12T07:01:18.813Z,9.74
2023-04-12T07:04:21.612Z,9.88
2023-04-12T07:07:26.031Z,9.93
2023-04-12T07:10:28.747Z,9.97
2023-04-12T07:13:31.622Z,9.96
2023-04-12T07:16:34.505Z,9.93
2023-04-12T07:19:37.273Z,10.01
2023-04-12T07:22:41.478Z,10.09
2023-04-12T07:25:44.280Z,10.11
2023-04-12T07:28:47.078Z,10.08
2023-04-12T07:31:49.833Z,10.21
2023-04-12T07:34:53.134Z,10.28
2023-04-12T07:37:57.452Z,10.26
2023-04-12T07:41:00.179Z,10.29
2023-04-12T07:44:03.307Z,10.31
2023-04-12T07:47:07.263Z,10.49
2023-04-12T07:50:12.620Z,10.48
2023-04-12T07:53:22.921Z,10.50
2023-04-12T07:56:25.871Z,10.45
2023-04-12T07:59:28.693Z,10.43
2023-04-12T08:02:31.552Z,10.46
2023-04-12T08:05:34.641Z,10.51
2023-04-12T08:08:38.838Z,10.55
2023-04-12T08:11:41.591Z,10.59
2023-04-12T08:14:44.700Z,10.66
2023-04-12T08:17:48.158Z,10.69
2023-04-12T08:20:51.167Z,10.66
2023-04-12T08:23:55.470Z,10.71
2023-04-12T08:26:58.516Z,10.71
2023-04-12T08:30:01.456Z,10.74
2023-04-12T08:33:04.573Z,10.78
2023-04-12T08:36:08.548Z,10.79
2023-04-12T08:39:12.633Z,10.84
2023-04-12T08:42:16.663Z,10.82
2023-04-12T08:45:19.412Z,10.87
2023-04-12T08:48:23.554Z,10.91
2023-04-12T08:51:27.105Z,10.82
2023-04-12T08:54:31.423Z,10.98
2023-04-12T08:57:36.399Z,11.05
2023-04-12T09:00:39.650Z,11.03
2023-04-12T09:03:43.929Z,11.08
2023-04-12T09:06:46.905Z,11.14
2023-04-12T09:09:51.448Z,11.22
2023-04-12T09:12:54.271Z,11.27
2023-04-12T09:15:56.978Z,11.27
2023-04-12T09:19:02.532Z,11.35
2023-04-12T09:22:05.299Z,11.42
2023-04-12T09:25:10.106Z,11.61
2023-04-12T09:28:21.266Z,11.68
2023-04-12T09:31:24.148Z,11.81
2023-04-12T09:34:28.098Z,11.91
2023-04-12T09:37:31.068Z,11.81
2023-04-12T09:40:36.374Z,12.02
2023-04-12T09:43:39.981Z,12.08
2023-04-12T09:46:52.934Z,12.32
2023-04-12T09:49:56.770Z,12.19
2023-04-12T09:53:00.552Z,12.24
2023-04-12T09:56:05.660Z,12.37
2023-04-12T09:59:09.167Z,12.45
2023-04-12T10:02:16.643Z,12.57
2023-04-12T10:05:21.226Z,12.61
2023-04-12T10:08:25.023Z,12.65
2023-04-12T10:11:29.849Z,12.73
2023-04-12T10:14:33.073Z,12.87
2023-04-12T10:17:36.373Z,13.03
2023-04-12T10:20:41.833Z,13.08
2023-04-12T10:23:45.827Z,13.17
2023-04-12T10:26:51.132Z,13.31
2023-04-12T10:29:54.339Z,13.37
2023-04-12T10:33:14.584Z,13.24
2023-04-12T10:36:17.614Z,13.25
2023-04-12T10:39:37.665Z,13.27
2023-04-12T10:42:42.108Z,13.40
2023-04-12T10:45:45.555Z,13.69
2023-04-12T10:48:53.739Z,13.92
2023-04-12T10:52:14.638Z,13.97
2023-04-12T10:55:32.768Z,14.05
2023-04-12T10:58:59.767Z,14.06
2023-04-12T11:02:10.948Z,14.20
2023-04-12T11:05:14.685Z,14.23
2023-04-12T11:08:19.917Z,14.40
2023-04-12T11:11:23.174Z,14.51
2023-04-12T11:14:34.920Z,14.48
2023-04-12T11:17:38.119Z,14.44
2023-04-12T11:20:41.452Z,14.47
2023-04-12T11:23:44.856Z,14.41
2023-04-12T11:26:48.372Z,14.33
2023-04-12T11:29:55.641Z,14.35
2023-04-12T11:32:58.841Z,14.34
2023-04-12T11:36:05.774Z,14.41
2023-04-12T11:39:09.732Z,14.48
2023-04-12T11:42:17.453Z,14.64
2023-04-12T11:45:22.456Z,14.76
2023-04-12T11:48:25.738Z,14.83
2023-04-12T11:51:32.485Z,14.81
2023-04-12T11:54:35.359Z,14.73
2023-04-12T11:57:40.139Z,14.63
2023-04-12T12:00:45.403Z,14.69
2023-04-12T12:03:49.566Z,14.73
2023-04-12T12:06:53.269Z,14.73
2023-04-12T12:09:56.896Z,14.79
2023-04-12T12:12:59.697Z,14.93
2023-04-12T12:16:08.315Z,14.97
2023-04-12T12:19:11.690Z,15.06
2023-04-12T12:22:16.653Z,15.21
2023-04-12T12:25:20.391Z,15.45
2023-04-12T12:28:24.780Z,15.61
2023-04-12T12:31:29.229Z,15.55
2023-04-12T12:34:34.783Z,15.48
2023-04-12T12:37:37.904Z,15.47
2023-04-12T12:40:40.598Z,15.76
2023-04-12T12:43:46.813Z,16.06
2023-04-12T12:46:57.016Z,16.44
2023-04-12T12:50:06.325Z,16.80
2023-04-12T12:53:11.256Z,16.94
2023-04-12T12:56:14.675Z,16.89
2023-04-12T12:59:17.285Z,16.77
2023-04-12T13:02:21.479Z,16.54
2023-04-12T13:05:24.298Z,16.19
2023-04-12T13:08:27.900Z,16.12
2023-04-12T13:11:30.619Z,16.31
2023-04-12T13:14:33.219Z,16.42
2023-04-12T13:17:37.531Z,16.58
2023-04-12T13:20:40.184Z,16.65
2023-04-12T13:23:42.807Z,16.54
2023-04-12T13:26:45.437Z,16.45
2023-04-12T13:29:48.068Z,16.27
2023-04-12T13:32:52.125Z,16.04
2023-04-12T13:35:55.179Z,15.82
2023-04-12T13:38:58.084Z,15.80
2023-04-12T13:42:02.020Z,15.90
2023-04-12T13:45:05.371Z,16.05
2023-04-12T13:48:09.712Z,16.26
2023-04-12T13:51:12.571Z,16.37
2023-04-12T13:54:17.345Z,16.38
2023-04-12T13:57:20.073Z,16.34
2023-04-12T14:00:24.706Z,16.24
2023-04-12T14:03:28.853Z,16.15
2023-04-12T14:06:32.459Z,15.98
2023-04-12T14:09:35.192Z,15.92
2023-04-12T14:12:37.790Z,15.92
2023-04-12T14:15:40.721Z,15.85
2023-04-12T14:18:44.680Z,15.79
2023-04-12T14:21:48.629Z,15.84
2023-04-12T14:24:51.284Z,16.00
2023-04-12T14:27:53.889Z,16.30
2023-04-12T14:30:56.572Z,16.45
2023-04-12T14:34:00.811Z,16.43
2023-04-12T14:37:03.793Z,16.46
2023-04-12T14:40:08.352Z,16.47
2023-04-12T14:43:11.130Z,16.50
2023-04-12T14:46:13.897Z,16.54
2023-04-12T14:49:18.412Z,16.48
2023-04-12T14:52:21.171Z,16.44
2023-04-12T14:55:23.770Z,16.45
2023-04-12T14:58:29.367Z,16.39
2023-04-12T15:01:32.054Z,16.32
2023-04-12T15:04:36.293Z,16.16
2023-04-12T15:07:39.010Z,16.10
2023-04-12T15:10:41.675Z,15.86
2023-04-12T15:13:44.674Z,15.67
2023-04-12T15:16:48.971Z,15.11
2023-04-12T15:19:53.271Z,14.41
2023-04-12T15:22:56.122Z,13.90
2023-04-12T15:26:00.959Z,13.50
2023-04-12T15:29:03.849Z,13.15
2023-04-12T15:32:08.730Z,12.79
2023-04-12T15:38:22.818Z,12.56
2023-04-12T15:41:26.222Z,12.43
2023-04-12T15:44:31.791Z,12.31
2023-04-12T15:47:34.456Z,12.29
2023-04-12T15:50:38.984Z,12.24
2023-04-12T15:53:43.450Z,12.23
2023-04-12T15:56:46.255Z,12.32
2023-04-12T15:59:49.573Z,12.46
2023-04-12T16:02:54.841Z,12.52
2023-04-12T16:05:59.181Z,12.60
2023-04-12T16:09:02.841Z,12.78
2023-04-12T16:12:05.970Z,13.03
2023-04-12T16:15:09.340Z,13.27
2023-04-12T16:18:12.825Z,13.42
2023-04-12T16:21:20.015Z,13.47
2023-04-12T16:24:22.764Z,13.37
2023-04-12T16:27:29.373Z,13.18
2023-04-12T16:30:32.697Z,13.05
2023-04-12T16:33:35.649Z,12.99
2023-04-12T16:36:39.676Z,12.96
2023-04-12T16:39:43.464Z,12.95
2023-04-12T16:42:46.525Z,12.97
2023-04-12T16:45:49.283Z,13.02
2023-04-12T16:48:52.030Z,12.97
2023-04-12T16:51:56.064Z,12.95
2023-04-12T16:54:59.115Z,12.96
2023-04-12T16:58:01.812Z,12.92
2023-04-12T17:01:04.631Z,12.94
2023-04-12T17:04:07.324Z,12.97
2023-04-12T17:07:11.718Z,12.96
2023-04-12T17:10:16.975Z,13.08
2023-04-12T17:13:20.367Z,12.91
2023-04-12T17:16:23.790Z,12.85
2023-04-12T17:19:27.026Z,12.77
2023-04-12T17:22:31.652Z,12.69
2023-04-12T17:25:34.396Z,12.60
2023-04-12T17:28:39.527Z,12.51
2023-04-12T17:31:42.805Z,12.46
2023-04-12T17:34:45.445Z,12.43
2023-04-12T17:37:49.705Z,12.40
2023-04-12T17:40:52.487Z,12.36
2023-04-12T17:43:55.605Z,12.35
2023-04-12T17:46:58.411Z,12.28
2023-04-12T17:50:01.090Z,12.19
2023-04-12T17:53:05.152Z,12.23
2023-04-12T17:56:08.113Z,12.25
2023-04-12T17:59:11.395Z,12.31
2023-04-12T18:02:16.328Z,12.30
2023-04-12T18:05:19.470Z,12.26
2023-04-12T18:08:24.892Z,12.29
2023-04-12T18:11:27.534Z,12.16
2023-04-12T18:14:30.496Z,12.13
2023-04-12T18:17:33.131Z,12.15
2023-04-12T18:20:35.854Z,12.16
2023-04-12T18:23:39.834Z,12.19
2023-04-12T18:26:42.555Z,12.08
2023-04-12T18:29:45.402Z,11.99
2023-04-12T18:32:48.444Z,12.01
2023-04-12T18:35:51.744Z,11.99
2023-04-12T18:38:55.727Z,11.83
2023-04-12T18:41:58.363Z,11.64
2023-04-12T18:45:01.086Z,11.65
2023-04-12T18:48:04.010Z,11.63
2023-04-12T18:51:07.295Z,11.47
2023-04-12T18:54:13.779Z,11.34
2023-04-12T18:57:16.761Z,11.62
2023-04-12T19:00:20.479Z,11.63
2023-04-12T19:03:24.156Z,11.70
2023-04-12T19:06:27.983Z,11.61
2023-04-12T19:09:32.027Z,11.72
2023-04-12T19:12:34.703Z,11.77
2023-04-12T19:15:37.618Z,11.65
2023-04-12T19:18:40.515Z,11.72
2023-04-12T19:21:43.226Z,11.63
2023-04-12T19:24:47.530Z,11.61
2023-04-12T19:27:50.562Z,11.59
2023-04-12T19:30:53.343Z,11.54
2023-04-12T19:33:57.357Z,11.65
2023-04-12T19:37:00.253Z,11.63
2023-04-12T19:40:05.395Z,11.59
2023-04-12T19:43:08.401Z,11.56
2023-04-12T19:46:11.730Z,11.67
2023-04-12T19:49:14.760Z,11.66
2023-04-12T19:52:20.101Z,11.82
2023-04-12T19:55:24.197Z,11.73
2023-04-12T19:58:26.810Z,11.80
2023-04-12T20:01:30.231Z,11.60
2023-04-12T20:04:33.399Z,11.48
2023-04-12T20:07:36.923Z,11.43
2023-04-12T20:10:40.960Z,11.35
2023-04-12T20:13:43.577Z,11.42
2023-04-12T20:16:46.241Z,11.45
2023-04-12T20:19:49.823Z,11.41
2023-04-12T20:22:52.738Z,11.38
2023-04-12T20:25:57.459Z,11.44
2023-04-12T20:29:01.185Z,11.44
2023-04-12T20:32:04.220Z,11.48
2023-04-12T20:35:08.475Z,11.52
2023-04-12T20:38:11.717Z,11.53
2023-04-12T20:41:15.943Z,11.48
2023-04-12T20:44:19.410Z,11.55
2023-04-12T20:47:22.352Z,11.44
2023-04-12T20:50:25.247Z,11.23
2023-04-12T20:53:27.847Z,10.96
2023-04-12T20:56:32.034Z,10.72
2023-04-12T20:59:35.896Z,10.48
2023-04-12T21:02:38.748Z,10.39
2023-04-12T21:05:41.946Z,10.29
2023-04-12T21:08:46.797Z,10.36
2023-04-12T21:11:52.179Z,10.34
2023-04-12T21:14:57.479Z,10.25
2023-04-12T21:18:00.238Z,10.18
2023-04-12T21:21:03.704Z,10.16
2023-04-12T21:24:07.053Z,10.08
2023-04-12T21:27:11.342Z,9.94
2023-04-12T21:30:15.606Z,9.89
2023-04-12T21:33:21.840Z,9.89
2023-04-12T21:36:24.888Z,9.96
2023-04-12T21:39:27.858Z,9.99
2023-04-12T21:42:32.529Z,9.93
2023-04-12T21:45:35.489Z,9.92
2023-04-12T21:48:38.178Z,9.93
2023-04-12T21:51:40.835Z,9.94
2023-04-12T21:54:48.694Z,9.87
2023-04-12T21:57:52.979Z,9.80
2023-04-12T22:00:55.696Z,9.78
2023-04-12T22:03:58.598Z,9.72
2023-04-12T22:07:03.842Z,9.68
2023-04-12T22:10:09.219Z,9.69
2023-04-12T22:13:13.371Z,9.67
2023-04-12T22:16:16.896Z,9.56
2023-04-12T22:19:19.788Z,9.52
2023-04-12T22:22:22.442Z,9.47
2023-04-12T22:25:25.869Z,9.45
2023-04-12T22:28:29.863Z,9.48
2023-04-12T22:31:32.571Z,9.48
2023-04-12T22:34:37.116Z,9.51
2023-04-12T22:37:41.113Z,9.56
2023-04-12T22:40:46.834Z,9.51
2023-04-12T22:44:01.187Z,9.50
2023-04-12T22:47:04.479Z,9.55
2023-04-12T22:50:08.681Z,9.50
2023-04-12T22:53:13.832Z,9.44
2023-04-12T22:56:16.824Z,9.51
2023-04-12T22:59:23.324Z,9.59
2023-04-12T23:02:26.593Z,9.56
2023-04-12T23:05:29.969Z,9.42
2023-04-12T23:08:33.911Z,9.47
2023-04-12T23:11:38.207Z,9.46
2023-04-12T23:14:42.159Z,9.41
2023-04-12T23:17:44.788Z,9.41
2023-04-12T23:20:49.356Z,9.29
2023-04-12T23:23:52.630Z,9.27
2023-04-12T23:26:57.670Z,9.24
2023-04-12T23:30:01.627Z,9.04
2023-04-12T23:33:04.419Z,8.90
2023-04-12T23:36:07.719Z,8.88
2023-04-12T23:39:10.379Z,8.82
2023-04-12T23:42:12.964Z,8.71
2023-04-12T23:45:17.165Z,8.74
2023-04-12T23:48:19.941Z,8.69
2023-04-12T23:51:23.021Z,8.73
2023-04-12T23:54:25.611Z,8.74
2023-04-12T23:57:28.235Z,8.67
